createdAt,value
2019-03-12T00:02:18.034Z,4.00
2019-03-12T00:04:48.315Z,3.60
2019-03-12T00:07:18.493Z,3.40
2019-03-12T00:09:48.834Z,3.60
2019-03-12T00:12:19.036Z,4.00
2019-03-12T00:14:49.459Z,4.20
2019-03-12T00:17:19.581Z,4.30
2019-03-12T00:19:49.840Z,4.40
2019-03-12T00:22:19.891Z,4.50
2019-03-12T00:24:50.082Z,4.40
2019-03-12T00:27:20.161Z,4.30
2019-03-12T00:29:50.359Z,4.30
2019-03-12T00:32:20.598Z,4.10
2019-03-12T00:34:50.983Z,3.90
2019-03-12T00:37:20.983Z,3.70
2019-03-12T00:39:51.642Z,3.90
2019-03-12T00:42:21.687Z,4.00
2019-03-12T00:44:51.948Z,3.90
2019-03-12T00:47:22.231Z,4.20
2019-03-12T00:49:52.440Z,4.30
2019-03-12T00:52:22.561Z,4.30
2019-03-12T00:54:53.303Z,4.20
2019-03-12T00:57:23.682Z,4.20
2019-03-12T00:59:56.324Z,4.10
2019-03-12T01:02:26.388Z,3.80
2019-03-12T01:04:56.458Z,3.30
2019-03-12T01:07:26.827Z,2.90
2019-03-12T01:09:57.128Z,2.70
2019-03-12T01:12:27.393Z,2.40
2019-03-12T01:14:57.629Z,2.20
2019-03-12T01:17:27.958Z,2.00
2019-03-12T01:19:58.223Z,1.90
2019-03-12T01:22:29.944Z,1.80
2019-03-12T01:25:00.423Z,1.60
2019-03-12T01:27:30.716Z,1.40
2019-03-12T01:30:00.906Z,1.30
2019-03-12T01:32:31.746Z,1.40
2019-03-12T01:35:02.303Z,1.30
2019-03-12T01:37:33.263Z,1.40
2019-03-12T01:40:03.627Z,1.30
2019-03-12T01:42:33.989Z,1.30
2019-03-12T01:45:04.567Z,1.30
2019-03-12T01:47:35.129Z,1.30
2019-03-12T01:50:06.176Z,1.30
2019-03-12T01:52:36.590Z,1.20
2019-03-12T01:55:07.988Z,1.10
2019-03-12T01:57:38.768Z,1.10
2019-03-12T02:00:11.835Z,1.10
2019-03-12T02:02:41.952Z,1.20
2019-03-12T02:05:15.778Z,1.20
2019-03-12T02:07:46.464Z,1.20
2019-03-12T02:10:17.024Z,1.30
2019-03-12T02:12:47.499Z,1.60
2019-03-12T02:15:17.966Z,1.70
2019-03-12T02:17:48.257Z,2.00
2019-03-12T02:20:18.651Z,2.70
2019-03-12T02:22:48.790Z,3.10
2019-03-12T02:25:18.915Z,3.10
2019-03-12T02:27:49.038Z,2.90
2019-03-12T02:30:19.970Z,2.90
2019-03-12T02:32:50.245Z,3.00
2019-03-12T02:35:20.503Z,3.10
2019-03-12T02:37:50.805Z,3.00
2019-03-12T02:40:21.057Z,2.70
2019-03-12T02:42:51.232Z,2.50
2019-03-12T02:45:21.656Z,2.30
2019-03-12T02:47:51.828Z,2.00
2019-03-12T02:50:22.115Z,1.90
2019-03-12T02:52:52.277Z,1.70
2019-03-12T02:55:22.493Z,1.60
2019-03-12T02:57:52.705Z,1.60
2019-03-12T03:00:23.933Z,1.60
2019-03-12T03:02:54.175Z,1.50
2019-03-12T03:05:24.345Z,1.30
2019-03-12T03:08:00.299Z,1.20
2019-03-12T03:10:30.449Z,1.10
2019-03-12T03:13:00.645Z,1.30
2019-03-12T03:15:36.908Z,1.40
2019-03-12T03:18:07.081Z,1.90
2019-03-12T03:20:37.243Z,3.00
2019-03-12T03:23:07.512Z,3.70
2019-03-12T03:25:37.737Z,4.20
2019-03-12T03:28:07.809Z,4.30
2019-03-12T03:30:38.191Z,4.40
2019-03-12T03:33:08.400Z,4.30
2019-03-12T03:35:38.830Z,4.20
2019-03-12T03:38:09.044Z,4.10
2019-03-12T03:40:39.271Z,3.90
2019-03-12T03:43:09.494Z,3.60
2019-03-12T03:45:39.711Z,3.30
2019-03-12T03:48:09.937Z,3.00
2019-03-12T03:50:40.158Z,2.90
2019-03-12T03:53:10.431Z,2.80
2019-03-12T03:55:40.853Z,2.70
2019-03-12T03:58:11.020Z,2.60
2019-03-12T04:00:41.314Z,2.40
2019-03-12T04:03:11.518Z,2.40
2019-03-12T04:05:41.694Z,2.20
2019-03-12T04:08:12.057Z,2.10
2019-03-12T04:10:42.181Z,2.00
2019-03-12T04:13:12.300Z,1.90
2019-03-12T04:15:42.629Z,2.00
2019-03-12T04:18:12.965Z,1.90
2019-03-12T04:20:43.063Z,1.90
2019-03-12T04:23:16.017Z,1.90
2019-03-12T04:25:45.406Z,1.90
2019-03-12T04:28:15.691Z,1.80
2019-03-12T04:30:45.839Z,1.80
2019-03-12T04:33:52.689Z,1.90
2019-03-12T04:36:22.960Z,1.80
2019-03-12T04:38:53.114Z,1.80
2019-03-12T04:41:23.282Z,1.60
2019-03-12T04:43:53.575Z,1.60
2019-03-12T04:46:23.675Z,1.60
2019-03-12T04:48:53.853Z,1.70
2019-03-12T04:51:24.175Z,1.80
2019-03-12T04:53:54.332Z,1.80
2019-03-12T04:56:24.505Z,1.80
2019-03-12T04:58:54.790Z,1.90
2019-03-12T05:01:25.007Z,1.80
2019-03-12T05:03:55.331Z,1.70
2019-03-12T05:06:26.123Z,1.60
2019-03-12T05:08:56.284Z,1.60
2019-03-12T05:11:26.551Z,1.60
2019-03-12T05:14:24.382Z,1.40
2019-03-12T05:16:56.172Z,1.30
2019-03-12T05:19:27.289Z,1.10
2019-03-12T05:21:57.547Z,0.90
2019-03-12T05:24:27.767Z,0.70
2019-03-12T05:26:57.933Z,0.70
2019-03-12T05:29:28.103Z,1.10
2019-03-12T05:31:58.322Z,1.30
2019-03-12T05:34:28.656Z,1.10
2019-03-12T05:36:58.879Z,1.10
2019-03-12T05:39:29.044Z,1.10
2019-03-12T05:41:59.211Z,1.00
2019-03-12T05:44:29.445Z,0.80
2019-03-12T05:46:59.500Z,0.70
2019-03-12T05:49:29.772Z,0.60
2019-03-12T05:52:00.043Z,0.40
2019-03-12T05:54:30.163Z,0.40
2019-03-12T05:57:00.341Z,0.40
2019-03-12T05:59:30.560Z,0.40
2019-03-12T06:02:00.751Z,0.70
2019-03-12T06:04:30.996Z,0.80
2019-03-12T06:07:01.272Z,0.90
2019-03-12T06:09:31.543Z,0.90
2019-03-12T06:12:01.708Z,1.00
2019-03-12T06:14:32.024Z,1.10
2019-03-12T06:17:02.276Z,1.10
2019-03-12T06:19:32.215Z,1.10
2019-03-12T06:22:02.510Z,1.10
2019-03-12T06:24:32.714Z,1.10
2019-03-12T06:27:02.836Z,1.10
2019-03-12T06:29:33.332Z,1.20
2019-03-12T06:32:19.577Z,1.40
2019-03-12T06:35:20.928Z,1.50
2019-03-12T06:38:02.097Z,1.50
2019-03-12T06:40:41.544Z,1.50
2019-03-12T06:43:43.201Z,1.50
2019-03-12T06:46:32.561Z,1.50
2019-03-12T06:49:13.751Z,1.60
2019-03-12T06:51:55.130Z,1.90
2019-03-12T06:55:02.626Z,2.00
2019-03-12T06:58:01.007Z,2.10
2019-03-12T07:00:41.157Z,2.30
2019-03-12T07:03:22.442Z,3.00
2019-03-12T07:05:59.323Z,3.50
2019-03-12T07:08:43.996Z,3.80
2019-03-12T07:11:38.878Z,4.30
2019-03-12T07:14:22.546Z,4.70
2019-03-12T07:17:01.850Z,4.90
2019-03-12T07:20:03.615Z,5.00
2019-03-12T07:22:45.914Z,5.00
2019-03-12T07:25:22.502Z,5.10
2019-03-12T07:28:30.183Z,5.10
2019-03-12T07:31:17.325Z,5.20
2019-03-12T07:34:12.714Z,5.20
2019-03-12T07:37:02.002Z,5.20
2019-03-12T07:39:50.429Z,5.10
2019-03-12T07:42:31.914Z,5.10
2019-03-12T07:45:24.154Z,5.20
2019-03-12T07:48:02.360Z,5.10
2019-03-12T07:50:51.217Z,5.10
2019-03-12T07:53:58.650Z,5.10
2019-03-12T07:56:26.155Z,5.20
2019-03-12T07:59:33.703Z,5.30
2019-03-12T08:02:21.192Z,5.50
2019-03-12T08:05:08.623Z,5.60
2019-03-12T08:07:57.690Z,5.70
2019-03-12T08:11:02.105Z,5.90
2019-03-12T08:13:47.581Z,6.00
2019-03-12T08:16:41.865Z,6.30
2019-03-12T08:19:30.927Z,6.50
2019-03-12T08:22:12.128Z,6.70
2019-03-12T08:25:15.775Z,6.70
2019-03-12T08:27:54.672Z,6.90
2019-03-12T08:30:46.075Z,6.90
2019-03-12T08:33:35.363Z,7.00
2019-03-12T08:36:42.714Z,7.20
2019-03-12T08:39:38.023Z,7.30
2019-03-12T08:42:25.550Z,7.40
2019-03-12T08:45:15.446Z,7.50
2019-03-12T08:48:07.765Z,7.70
2019-03-12T08:50:55.457Z,7.90
2019-03-12T08:53:36.564Z,7.80
2019-03-12T08:56:28.508Z,8.00
2019-03-12T08:59:20.327Z,8.10
2019-03-12T09:02:12.188Z,8.40
2019-03-12T09:05:00.988Z,8.40
2019-03-12T09:07:48.556Z,8.40
2019-03-12T09:10:40.612Z,8.60
2019-03-12T09:13:38.757Z,8.50
2019-03-12T09:16:16.003Z,8.70
2019-03-12T09:19:04.083Z,8.60
2019-03-12T09:21:51.097Z,8.60
2019-03-12T09:24:49.171Z,8.60
2019-03-12T09:27:36.903Z,8.70
2019-03-12T09:30:24.944Z,8.90
2019-03-12T09:33:16.770Z,8.90
2019-03-12T09:36:05.013Z,9.10
2019-03-12T09:39:03.508Z,9.30
2019-03-12T09:41:47.753Z,9.40
2019-03-12T09:44:46.231Z,9.50
2019-03-12T09:47:41.237Z,9.40
2019-03-12T09:50:33.369Z,9.40
2019-03-12T09:53:16.904Z,9.70
2019-03-12T09:56:09.039Z,9.80
2019-03-12T09:58:56.563Z,9.80
2019-03-12T10:01:35.267Z,9.90
2019-03-12T10:04:18.649Z,10.10
2019-03-12T10:07:10.848Z,10.20
2019-03-12T10:09:50.286Z,10.00
2019-03-12T10:12:48.155Z,10.00
2019-03-12T10:15:35.681Z,10.00
2019-03-12T10:18:20.342Z,10.20
2019-03-12T10:21:12.373Z,10.60
2019-03-12T10:23:50.889Z,10.70
2019-03-12T10:26:52.343Z,10.60
2019-03-12T10:29:56.560Z,11.00
2019-03-12T10:32:43.701Z,10.90
2019-03-12T10:35:35.508Z,10.90
2019-03-12T10:38:59.078Z,11.00
2019-03-12T10:41:46.692Z,11.00
2019-03-12T10:44:23.672Z,11.10
2019-03-12T10:47:01.987Z,11.10
2019-03-12T10:49:37.264Z,11.20
2019-03-12T10:52:04.163Z,11.20
2019-03-12T10:54:34.292Z,11.40
2019-03-12T10:57:04.615Z,11.60
2019-03-12T10:59:34.879Z,11.80
2019-03-12T11:02:05.051Z,11.90
2019-03-12T11:04:36.245Z,11.90
2019-03-12T11:07:16.395Z,11.90
2019-03-12T11:09:39.619Z,11.90
2019-03-12T11:12:09.895Z,12.00
2019-03-12T11:14:39.857Z,12.20
2019-03-12T11:17:10.115Z,12.30
2019-03-12T11:19:40.132Z,12.40
2019-03-12T11:22:10.291Z,12.30
2019-03-12T11:24:40.618Z,12.40
2019-03-12T11:27:10.553Z,12.40
2019-03-12T11:29:40.388Z,12.40
2019-03-12T11:32:10.696Z,12.30
2019-03-12T11:34:40.887Z,12.40
2019-03-12T11:37:10.840Z,12.70
2019-03-12T11:39:40.941Z,13.00
2019-03-12T11:42:11.251Z,13.80
2019-03-12T11:44:41.523Z,14.60
2019-03-12T11:47:11.606Z,15.00
2019-03-12T11:49:41.518Z,15.50
2019-03-12T11:52:11.536Z,14.70
2019-03-12T11:54:41.818Z,14.70
2019-03-12T11:57:12.064Z,15.40
2019-03-12T11:59:42.332Z,16.20
2019-03-12T12:02:12.560Z,16.80
2019-03-12T12:04:42.947Z,17.30
2019-03-12T12:07:13.334Z,16.60
2019-03-12T12:09:43.477Z,17.10
2019-03-12T12:12:13.704Z,17.10
2019-03-12T12:14:44.024Z,17.00
2019-03-12T12:17:14.358Z,15.90
2019-03-12T12:19:44.623Z,16.10
2019-03-12T12:22:14.791Z,16.10
2019-03-12T12:24:44.921Z,16.00
2019-03-12T12:27:15.187Z,16.80
2019-03-12T12:29:45.158Z,16.80
2019-03-12T12:32:15.575Z,16.40
2019-03-12T12:34:45.499Z,16.30
2019-03-12T12:37:15.709Z,16.90
2019-03-12T12:39:46.024Z,17.40
2019-03-12T12:42:16.196Z,17.10
2019-03-12T12:44:46.060Z,17.40
2019-03-12T12:47:16.194Z,17.00
2019-03-12T12:49:46.403Z,17.50
2019-03-12T12:52:16.471Z,18.00
2019-03-12T12:54:46.379Z,18.30
2019-03-12T12:57:16.448Z,18.80
2019-03-12T12:59:46.673Z,19.20
2019-03-12T13:02:16.611Z,19.00
2019-03-12T13:04:46.472Z,18.20
2019-03-12T13:07:16.467Z,19.20
2019-03-12T13:09:46.691Z,19.80
2019-03-12T13:12:16.562Z,19.40
2019-03-12T13:14:46.783Z,19.20
2019-03-12T13:17:16.772Z,18.80
2019-03-12T13:19:46.796Z,18.60
2019-03-12T13:22:17.228Z,19.10
2019-03-12T13:24:47.364Z,19.40
2019-03-12T13:27:17.334Z,19.80
2019-03-12T13:29:47.195Z,19.60
2019-03-12T13:32:17.419Z,20.10
2019-03-12T13:34:47.323Z,20.90
2019-03-12T13:37:17.211Z,20.80
2019-03-12T13:39:47.140Z,20.60
2019-03-12T13:42:17.407Z,19.90
2019-03-12T13:44:47.259Z,20.30
2019-03-12T13:47:17.219Z,21.20
2019-03-12T13:49:47.244Z,21.20
2019-03-12T13:52:17.231Z,21.30
2019-03-12T13:54:47.251Z,21.70
2019-03-12T13:57:17.093Z,22.20
2019-03-12T13:59:46.939Z,21.40
2019-03-12T14:02:16.890Z,21.10
2019-03-12T14:04:46.738Z,21.60
2019-03-12T14:07:16.592Z,21.80
2019-03-12T14:09:46.496Z,21.20
2019-03-12T14:12:16.655Z,21.00
2019-03-12T14:14:47.104Z,22.00
2019-03-12T14:17:17.016Z,22.90
2019-03-12T14:19:46.879Z,23.50
2019-03-12T14:22:16.744Z,22.90
2019-03-12T14:24:46.719Z,22.40
2019-03-12T14:27:16.696Z,22.70
2019-03-12T14:29:46.527Z,22.80
2019-03-12T14:32:16.540Z,23.90
2019-03-12T14:34:46.495Z,23.00
2019-03-12T14:37:16.454Z,22.40
2019-03-12T14:39:46.384Z,23.10
2019-03-12T14:42:16.401Z,23.40
2019-03-12T14:44:46.246Z,23.60
2019-03-12T14:47:16.176Z,23.50
2019-03-12T14:49:46.036Z,22.50
2019-03-12T14:52:35.519Z,22.30
2019-03-12T14:55:06.294Z,21.70
2019-03-12T14:57:36.147Z,19.70
2019-03-12T15:00:11.174Z,20.10
2019-03-12T15:02:41.044Z,21.30
2019-03-12T15:05:11.243Z,23.30
2019-03-12T15:07:41.377Z,23.80
2019-03-12T15:10:12.155Z,22.40
2019-03-12T15:12:42.141Z,21.40
2019-03-12T15:15:12.553Z,20.30
2019-03-12T15:17:42.763Z,19.30
2019-03-12T15:20:13.593Z,18.30
2019-03-12T15:22:44.880Z,17.50
2019-03-12T15:25:15.263Z,16.80
2019-03-12T15:27:45.381Z,16.30
2019-03-12T15:30:19.010Z,16.30
2019-03-12T15:32:48.864Z,16.30
2019-03-12T15:35:19.030Z,16.20
2019-03-12T15:37:48.919Z,16.20
2019-03-12T15:40:24.390Z,16.80
2019-03-12T15:42:55.732Z,18.30
2019-03-12T15:45:26.046Z,19.50
2019-03-12T15:47:56.311Z,20.60
2019-03-12T15:50:26.549Z,22.30
2019-03-12T15:52:56.710Z,23.20
2019-03-12T15:55:26.989Z,24.10
2019-03-12T15:57:57.194Z,23.70
2019-03-12T16:00:27.177Z,24.10
2019-03-12T16:02:57.031Z,23.80
2019-03-12T16:05:27.318Z,23.30
2019-03-12T16:07:57.160Z,23.80
2019-03-12T16:10:27.118Z,24.30
2019-03-12T16:12:57.705Z,24.80
2019-03-12T16:15:27.883Z,25.10
2019-03-12T16:17:58.151Z,23.70
2019-03-12T16:20:28.224Z,23.30
2019-03-12T16:22:58.341Z,22.00
2019-03-12T16:25:28.612Z,20.40
2019-03-12T16:27:58.732Z,19.90
2019-03-12T16:30:30.021Z,19.30
2019-03-12T16:33:00.168Z,18.90
2019-03-12T16:35:31.923Z,19.00
2019-03-12T16:38:02.446Z,19.40
2019-03-12T16:40:32.759Z,19.40
2019-03-12T16:43:02.652Z,19.80
2019-03-12T16:45:32.992Z,20.10
2019-03-12T16:48:03.315Z,19.70
2019-03-12T16:50:33.536Z,19.40
2019-03-12T16:53:03.763Z,19.20
2019-03-12T16:55:34.191Z,19.00
2019-03-12T16:58:04.404Z,18.80
2019-03-12T17:00:34.638Z,18.20
2019-03-12T17:03:04.956Z,17.50
2019-03-12T17:05:35.119Z,16.80
2019-03-12T17:08:05.288Z,16.20
2019-03-12T17:10:35.515Z,15.40
2019-03-12T17:13:05.630Z,14.80
2019-03-12T17:15:35.843Z,14.10
2019-03-12T17:18:06.951Z,13.70
2019-03-12T17:20:38.236Z,13.20
2019-03-12T17:23:09.480Z,12.80
2019-03-12T17:25:41.032Z,12.00
2019-03-12T17:28:13.373Z,11.60
2019-03-12T17:30:44.768Z,11.10
2019-03-12T17:33:16.356Z,10.80
2019-03-12T17:35:47.677Z,10.50
2019-03-12T17:38:19.390Z,10.30
2019-03-12T17:40:50.720Z,10.10
2019-03-12T17:43:22.266Z,9.80
2019-03-12T17:45:54.111Z,9.60
2019-03-12T17:48:25.476Z,9.40
2019-03-12T17:50:57.149Z,9.20
2019-03-12T17:53:28.482Z,8.90
2019-03-12T17:55:59.961Z,8.70
2019-03-12T17:58:31.196Z,8.50
2019-03-12T18:01:02.632Z,8.10
2019-03-12T18:03:33.857Z,7.80
2019-03-12T18:06:05.540Z,7.60
2019-03-12T18:08:36.760Z,7.40
2019-03-12T18:11:08.487Z,7.20
2019-03-12T18:13:39.807Z,6.90
2019-03-12T18:16:11.391Z,6.80
2019-03-12T18:18:42.771Z,6.70
2019-03-12T18:21:14.331Z,6.50
2019-03-12T18:23:46.046Z,6.30
2019-03-12T18:26:17.469Z,6.20
2019-03-12T18:28:49.043Z,6.00
2019-03-12T18:31:20.469Z,5.90
2019-03-12T18:33:52.204Z,5.90
2019-03-12T18:36:26.251Z,6.00
2019-03-12T18:39:02.709Z,6.00
2019-03-12T18:41:31.200Z,5.90
2019-03-12T18:44:03.001Z,5.90
2019-03-12T18:46:34.767Z,5.70
2019-03-12T18:49:06.455Z,5.60
2019-03-12T18:51:37.979Z,5.50
2019-03-12T18:54:09.692Z,5.50
2019-03-12T18:56:40.877Z,5.40
2019-03-12T18:59:11.647Z,5.30
2019-03-12T19:01:43.306Z,5.20
2019-03-12T19:04:14.622Z,5.10
2019-03-12T19:06:46.123Z,5.10
2019-03-12T19:09:17.468Z,5.20
2019-03-12T19:11:49.070Z,5.10
2019-03-12T19:14:20.350Z,5.10
2019-03-12T19:16:52.360Z,5.00
2019-03-12T19:19:24.031Z,4.80
2019-03-12T19:21:55.130Z,4.80
2019-03-12T19:24:26.049Z,4.80
2019-03-12T19:26:57.560Z,4.90
2019-03-12T19:29:28.949Z,5.10
2019-03-12T19:32:17.706Z,5.20
2019-03-12T19:34:52.028Z,5.20
2019-03-12T19:37:23.952Z,5.30
2019-03-12T19:39:55.832Z,5.40
2019-03-12T19:42:27.682Z,5.50
2019-03-12T19:44:59.557Z,5.60
2019-03-12T19:47:31.423Z,5.70
2019-03-12T19:50:03.491Z,5.70
2019-03-12T19:52:35.592Z,5.70
2019-03-12T19:55:08.307Z,5.60
2019-03-12T19:57:40.488Z,5.60
2019-03-12T20:00:15.331Z,5.50
2019-03-12T20:02:47.726Z,5.50
2019-03-12T20:05:19.954Z,5.40
2019-03-12T20:07:51.907Z,5.40
2019-03-12T20:10:51.233Z,5.40
2019-03-12T20:14:13.648Z,5.40
2019-03-12T20:17:23.615Z,5.40
2019-03-12T20:20:40.022Z,5.30
2019-03-12T20:24:03.305Z,5.20
2019-03-12T20:27:32.107Z,4.90
2019-03-12T20:30:52.169Z,4.80
2019-03-12T20:34:02.988Z,4.60
2019-03-12T20:37:11.370Z,4.50
2019-03-12T20:40:27.253Z,4.40
2019-03-12T20:43:37.911Z,4.80
2019-03-12T20:46:44.228Z,5.20
2019-03-12T20:50:03.953Z,5.40
2019-03-12T20:53:11.532Z,5.40
2019-03-12T20:56:19.379Z,5.20
2019-03-12T20:59:32.944Z,5.10
2019-03-12T21:02:50.433Z,5.10
2019-03-12T21:06:10.155Z,5.00
2019-03-12T21:09:30.807Z,5.00
2019-03-12T21:12:49.316Z,5.10
2019-03-12T21:16:05.965Z,5.20
2019-03-12T21:19:16.196Z,5.20
2019-03-12T21:22:18.727Z,5.20
2019-03-12T21:25:32.709Z,5.20
2019-03-12T21:28:53.596Z,5.20
2019-03-12T21:31:25.143Z,5.10
2019-03-12T21:33:56.745Z,4.90
2019-03-12T21:36:30.940Z,4.80
2019-03-12T21:39:01.067Z,4.80
2019-03-12T21:41:31.228Z,4.90
2019-03-12T21:44:01.465Z,4.70
2019-03-12T21:46:31.663Z,4.40
2019-03-12T21:49:01.840Z,4.20
2019-03-12T21:51:32.127Z,4.20
2019-03-12T21:54:02.235Z,4.20
2019-03-12T21:56:32.451Z,4.20
2019-03-12T21:59:02.727Z,4.20
2019-03-12T22:01:32.892Z,4.30
2019-03-12T22:04:03.160Z,4.30
2019-03-12T22:06:33.439Z,4.30
2019-03-12T22:09:04.523Z,4.20
2019-03-12T22:11:34.752Z,4.20
2019-03-12T22:14:04.975Z,4.00
2019-03-12T22:16:35.240Z,3.90
2019-03-12T22:19:05.412Z,3.80
2019-03-12T22:21:54.543Z,3.80
2019-03-12T22:24:24.643Z,3.70
2019-03-12T22:26:54.868Z,3.80
2019-03-12T22:29:25.204Z,3.80
2019-03-12T22:31:55.411Z,3.80
2019-03-12T22:34:25.631Z,3.70
2019-03-12T22:36:55.851Z,3.70
2019-03-12T22:39:26.226Z,3.60
2019-03-12T22:41:57.367Z,3.70
2019-03-12T22:44:27.644Z,3.80
2019-03-12T22:46:57.982Z,3.80
2019-03-12T22:49:28.190Z,3.70
2019-03-12T22:51:58.511Z,3.60
2019-03-12T22:54:28.780Z,3.60
2019-03-12T22:56:59.104Z,3.50
2019-03-12T22:59:29.394Z,3.50
2019-03-12T23:01:59.648Z,3.60
2019-03-12T23:04:29.875Z,3.60
2019-03-12T23:07:00.099Z,3.70
2019-03-12T23:09:30.312Z,3.60
2019-03-12T23:12:00.527Z,3.40
2019-03-12T23:14:30.763Z,3.30
2019-03-12T23:17:00.931Z,3.30
2019-03-12T23:19:31.195Z,3.20
2019-03-12T23:22:01.384Z,3.00
2019-03-12T23:24:31.488Z,2.80
2019-03-12T23:27:01.655Z,2.70
2019-03-12T23:29:31.872Z,2.60
2019-03-12T23:32:02.050Z,2.60
2019-03-12T23:34:32.222Z,2.50
2019-03-12T23:37:02.501Z,2.30
2019-03-12T23:39:32.709Z,2.10
2019-03-12T23:42:02.823Z,2.00
2019-03-12T23:44:33.199Z,2.00
2019-03-12T23:47:03.395Z,1.90
2019-03-12T23:49:33.500Z,1.90
2019-03-12T23:52:04.066Z,1.80
2019-03-12T23:54:34.364Z,1.70
2019-03-12T23:57:04.671Z,1.70
2019-03-12T23:59:34.948Z,1.70
